createdAt,value
2022-11-09T00:02:13.864Z,25.50
2022-11-09T00:04:43.524Z,25.50
2022-11-09T00:07:11.331Z,25.50
2022-11-09T00:09:42.387Z,25.50
2022-11-09T00:12:13.810Z,25.50
2022-11-09T00:14:42.663Z,25.50
2022-11-09T00:17:11.794Z,25.50
2022-11-09T00:19:41.946Z,25.50
2022-11-09T00:22:12.598Z,25.50
2022-11-09T00:24:44.343Z,25.50
2022-11-09T00:27:17.632Z,25.50
2022-11-09T00:29:46.970Z,25.50
2022-11-09T00:32:17.231Z,25.50
2022-11-09T00:34:50.063Z,25.50
2022-11-09T00:37:20.598Z,25.50
2022-11-09T00:39:49.441Z,25.50
2022-11-09T00:42:17.409Z,25.50
2022-11-09T00:44:48.977Z,25.50
2022-11-09T00:47:20.296Z,25.50
2022-11-09T00:49:57.954Z,25.50
2022-11-09T00:52:27.633Z,25.50
2022-11-09T00:54:55.908Z,25.40
2022-11-09T00:57:26.670Z,25.50
2022-11-09T00:59:57.121Z,25.60
2022-11-09T01:02:27.903Z,25.50
2022-11-09T01:04:57.935Z,25.50
2022-11-09T01:07:27.454Z,25.50
2022-11-09T01:09:58.692Z,25.50
2022-11-09T01:12:28.365Z,25.60
2022-11-09T01:14:59.923Z,25.60
2022-11-09T01:17:27.842Z,25.50
2022-11-09T01:19:55.692Z,25.60
2022-11-09T01:22:25.024Z,25.50
2022-11-09T01:24:54.515Z,25.50
2022-11-09T01:27:20.606Z,25.50
2022-11-09T01:29:54.523Z,25.50
2022-11-09T01:32:26.424Z,25.60
2022-11-09T01:34:57.096Z,25.50
2022-11-09T01:37:29.703Z,25.50
2022-11-09T01:40:00.281Z,25.60
2022-11-09T01:42:36.759Z,25.50
2022-11-09T01:45:30.641Z,25.60
2022-11-09T01:48:18.852Z,25.50
2022-11-09T01:50:59.066Z,25.60
2022-11-09T01:53:30.903Z,25.50
2022-11-09T01:56:02.814Z,25.50
2022-11-09T01:58:38.944Z,25.50
2022-11-09T02:01:12.721Z,25.50
2022-11-09T02:03:56.576Z,25.60
2022-11-09T02:06:31.019Z,25.60
2022-11-09T02:09:26.951Z,25.60
2022-11-09T02:11:57.477Z,25.60
2022-11-09T02:14:28.354Z,25.50
2022-11-09T02:17:00.108Z,25.60
2022-11-09T02:19:29.148Z,25.60
2022-11-09T02:22:00.865Z,25.60
2022-11-09T02:24:28.834Z,25.50
2022-11-09T02:26:57.399Z,25.60
2022-11-09T02:29:37.844Z,25.60
2022-11-09T02:32:17.431Z,25.60
2022-11-09T02:34:48.726Z,25.60
2022-11-09T02:37:28.392Z,25.60
2022-11-09T02:40:00.122Z,25.60
2022-11-09T02:42:28.178Z,25.60
2022-11-09T02:45:01.592Z,25.60
2022-11-09T02:47:33.456Z,25.60
2022-11-09T02:50:04.919Z,25.60
2022-11-09T02:52:35.704Z,25.60
2022-11-09T02:55:05.226Z,25.60
2022-11-09T02:57:34.704Z,25.60
2022-11-09T03:00:05.572Z,25.60
2022-11-09T03:02:35.870Z,25.60
2022-11-09T03:05:08.725Z,25.60
2022-11-09T03:07:38.844Z,25.60
2022-11-09T03:10:08.940Z,25.60
2022-11-09T03:12:41.274Z,25.60
2022-11-09T03:15:13.243Z,25.60
2022-11-09T03:17:42.345Z,25.60
2022-11-09T03:20:13.265Z,25.60
2022-11-09T03:22:45.125Z,25.60
2022-11-09T03:25:16.801Z,25.60
2022-11-09T03:27:45.835Z,25.60
2022-11-09T03:30:15.137Z,25.60
2022-11-09T03:32:50.280Z,25.60
2022-11-09T03:35:18.852Z,25.60
2022-11-09T03:37:49.893Z,25.60
2022-11-09T03:40:21.738Z,25.60
2022-11-09T03:42:52.410Z,25.60
2022-11-09T03:45:24.710Z,25.60
2022-11-09T03:47:55.444Z,25.60
2022-11-09T03:50:25.411Z,25.60
2022-11-09T03:52:56.272Z,25.60
2022-11-09T03:55:24.850Z,25.60
2022-11-09T03:57:54.275Z,25.60
2022-11-09T04:00:22.538Z,25.60
2022-11-09T04:02:55.110Z,25.60
2022-11-09T04:05:23.755Z,25.60
2022-11-09T04:08:00.297Z,25.60
2022-11-09T04:10:31.409Z,25.60
2022-11-09T04:12:57.854Z,25.60
2022-11-09T04:15:28.015Z,25.60
2022-11-09T04:18:02.264Z,25.60
2022-11-09T04:20:31.806Z,25.60
2022-11-09T04:23:01.869Z,25.60
2022-11-09T04:25:40.707Z,25.60
2022-11-09T04:28:11.988Z,25.60
2022-11-09T04:30:44.187Z,25.60
2022-11-09T04:33:14.652Z,25.60
2022-11-09T04:35:45.411Z,25.60
2022-11-09T04:38:18.896Z,25.60
2022-11-09T04:40:46.697Z,25.60
2022-11-09T04:43:16.759Z,25.60
2022-11-09T04:45:47.742Z,25.60
2022-11-09T04:48:17.504Z,25.60
2022-11-09T04:50:47.431Z,25.60
2022-11-09T04:53:18.648Z,25.60
2022-11-09T04:55:45.930Z,25.60
2022-11-09T04:58:17.263Z,25.60
2022-11-09T05:00:48.919Z,25.60
2022-11-09T05:03:18.868Z,25.60
2022-11-09T05:05:50.573Z,25.60
2022-11-09T05:08:22.334Z,25.60
2022-11-09T05:10:52.882Z,25.60
2022-11-09T05:13:25.208Z,25.60
2022-11-09T05:15:52.312Z,25.60
2022-11-09T05:18:20.769Z,25.60
2022-11-09T05:20:52.123Z,25.70
2022-11-09T05:23:41.181Z,25.60
2022-11-09T05:26:12.688Z,25.60
2022-11-09T05:28:42.132Z,25.60
2022-11-09T05:31:15.839Z,25.60
2022-11-09T05:33:46.306Z,25.60
2022-11-09T05:36:18.215Z,25.60
2022-11-09T05:38:48.564Z,25.60
2022-11-09T05:41:19.503Z,25.60
2022-11-09T05:43:50.489Z,25.60
2022-11-09T05:46:44.196Z,25.60
2022-11-09T05:49:15.958Z,25.60
2022-11-09T05:51:46.504Z,25.70
2022-11-09T05:54:16.908Z,25.60
2022-11-09T05:56:45.094Z,25.70
2022-11-09T05:59:14.991Z,25.60
2022-11-09T06:01:46.109Z,25.60
2022-11-09T06:04:16.737Z,25.70
2022-11-09T06:06:45.672Z,25.60
2022-11-09T06:09:18.808Z,25.60
2022-11-09T06:11:46.063Z,25.50
2022-11-09T06:14:17.286Z,25.50
2022-11-09T06:16:47.789Z,25.50
2022-11-09T06:19:20.066Z,25.50
2022-11-09T06:21:48.853Z,25.40
2022-11-09T06:24:18.791Z,25.40
2022-11-09T06:26:48.861Z,25.40
2022-11-09T06:29:18.945Z,25.40
2022-11-09T06:31:50.946Z,25.40
2022-11-09T06:34:22.257Z,25.40
2022-11-09T06:36:51.373Z,25.30
2022-11-09T06:39:18.714Z,25.30
2022-11-09T06:41:49.495Z,25.30
2022-11-09T06:44:21.358Z,25.30
2022-11-09T06:46:51.952Z,25.30
2022-11-09T06:49:22.105Z,25.30
2022-11-09T06:51:54.894Z,25.20
2022-11-09T06:54:26.218Z,25.20
2022-11-09T06:56:59.873Z,25.30
2022-11-09T06:59:31.176Z,25.20
2022-11-09T07:02:04.759Z,25.20
2022-11-09T07:04:33.547Z,25.20
2022-11-09T07:07:03.362Z,25.20
2022-11-09T07:09:34.255Z,25.20
2022-11-09T07:12:05.995Z,25.20
2022-11-09T07:14:37.999Z,25.20
2022-11-09T07:17:10.721Z,25.20
2022-11-09T07:19:47.638Z,25.20
2022-11-09T07:22:14.659Z,25.20
2022-11-09T07:24:43.039Z,25.20
2022-11-09T07:27:12.299Z,25.20
2022-11-09T07:29:46.149Z,25.20
2022-11-09T07:32:15.014Z,25.20
2022-11-09T07:34:43.653Z,25.20
2022-11-09T07:37:13.381Z,25.10
2022-11-09T07:39:44.774Z,25.20
2022-11-09T07:42:19.876Z,25.20
2022-11-09T07:44:50.399Z,25.20
2022-11-09T07:47:21.755Z,25.10
2022-11-09T07:49:53.028Z,25.20
2022-11-09T07:52:23.208Z,25.10
2022-11-09T07:55:06.601Z,25.10
2022-11-09T07:57:36.345Z,25.10
2022-11-09T08:00:12.776Z,25.10
2022-11-09T08:02:39.562Z,25.10
2022-11-09T08:05:11.384Z,25.10
2022-11-09T08:07:41.441Z,25.10
2022-11-09T08:10:13.669Z,25.10
2022-11-09T08:12:45.008Z,25.10
2022-11-09T08:15:14.886Z,25.10
2022-11-09T08:17:44.094Z,25.10
2022-11-09T08:20:18.120Z,25.10
2022-11-09T08:22:51.182Z,25.10
2022-11-09T08:25:20.405Z,25.10
2022-11-09T08:27:51.626Z,25.10
2022-11-09T08:30:24.182Z,25.10
2022-11-09T08:32:57.313Z,25.10
2022-11-09T08:35:29.795Z,25.10
2022-11-09T08:38:07.435Z,25.10
2022-11-09T08:40:36.170Z,25.10
2022-11-09T08:43:11.006Z,25.10
2022-11-09T08:45:42.808Z,25.10
2022-11-09T08:48:10.065Z,25.10
2022-11-09T08:50:38.362Z,25.10
2022-11-09T08:53:09.635Z,25.10
2022-11-09T08:55:48.392Z,25.10
2022-11-09T08:58:21.058Z,25.00
2022-11-09T09:00:51.526Z,25.10
2022-11-09T09:03:22.393Z,25.10
2022-11-09T09:05:50.637Z,25.00
2022-11-09T09:08:23.589Z,25.00
2022-11-09T09:10:52.941Z,25.10
2022-11-09T09:13:23.558Z,25.10
2022-11-09T09:15:53.690Z,25.10
2022-11-09T09:18:24.307Z,25.10
2022-11-09T09:20:56.832Z,25.10
2022-11-09T09:23:27.759Z,25.00
2022-11-09T09:25:58.786Z,25.00
2022-11-09T09:28:25.028Z,25.10
2022-11-09T09:30:55.279Z,25.00
2022-11-09T09:33:25.728Z,25.00
2022-11-09T09:35:57.773Z,25.00
2022-11-09T09:38:32.051Z,25.00
2022-11-09T09:41:04.856Z,25.00
2022-11-09T09:43:47.171Z,25.00
2022-11-09T09:46:36.201Z,25.00
2022-11-09T09:49:35.639Z,25.00
2022-11-09T09:52:23.958Z,25.00
2022-11-09T09:55:18.659Z,25.00
2022-11-09T09:58:04.157Z,25.00
2022-11-09T10:00:35.785Z,25.00
2022-11-09T10:03:07.850Z,25.00
2022-11-09T10:05:47.402Z,25.00
2022-11-09T10:08:37.620Z,25.00
2022-11-09T10:11:33.717Z,25.00
2022-11-09T10:14:48.299Z,25.00
2022-11-09T10:17:38.983Z,25.00
2022-11-09T10:20:32.527Z,25.00
2022-11-09T10:23:38.332Z,25.00
2022-11-09T10:26:21.730Z,25.00
2022-11-09T10:29:14.915Z,25.00
2022-11-09T10:32:25.381Z,25.00
2022-11-09T10:35:16.891Z,25.00
2022-11-09T10:37:51.075Z,25.00
2022-11-09T10:41:12.428Z,25.00
2022-11-09T10:43:40.497Z,25.00
2022-11-09T10:46:08.392Z,25.00
2022-11-09T10:48:42.615Z,25.00
2022-11-09T10:51:28.589Z,25.00
2022-11-09T10:54:24.015Z,25.00
2022-11-09T10:57:07.147Z,25.00
2022-11-09T10:59:45.089Z,25.00
2022-11-09T11:02:28.864Z,25.00
2022-11-09T11:05:10.504Z,25.00
2022-11-09T11:07:40.148Z,25.00
2022-11-09T11:10:16.966Z,25.00
2022-11-09T11:12:58.334Z,25.00
2022-11-09T11:16:00.109Z,25.00
2022-11-09T11:18:32.565Z,25.00
2022-11-09T11:21:19.309Z,25.00
2022-11-09T11:24:12.599Z,25.00
2022-11-09T11:26:59.697Z,25.00
2022-11-09T11:29:55.536Z,25.00
2022-11-09T11:32:25.358Z,25.00
2022-11-09T11:35:00.237Z,25.00
2022-11-09T11:37:54.460Z,25.00
2022-11-09T11:41:04.671Z,25.00
2022-11-09T11:43:48.720Z,25.00
2022-11-09T11:46:41.470Z,25.00
2022-11-09T11:49:43.095Z,25.00
2022-11-09T11:52:41.630Z,25.00
2022-11-09T11:55:46.611Z,25.00
2022-11-09T11:58:34.137Z,25.00
2022-11-09T12:01:20.486Z,25.00
2022-11-09T12:04:03.749Z,25.00
2022-11-09T12:06:59.648Z,25.00
2022-11-09T12:09:55.511Z,25.00
2022-11-09T12:12:29.562Z,25.00
2022-11-09T12:15:25.244Z,25.00
2022-11-09T12:18:03.489Z,25.00
2022-11-09T12:21:02.866Z,25.00
2022-11-09T12:23:56.890Z,25.00
2022-11-09T12:26:45.748Z,25.00
2022-11-09T12:29:22.585Z,25.00
2022-11-09T12:31:57.903Z,25.00
2022-11-09T12:34:39.380Z,25.00
2022-11-09T12:37:35.488Z,25.00
2022-11-09T12:40:14.437Z,25.00
2022-11-09T12:42:53.609Z,25.00
2022-11-09T12:45:31.453Z,25.00
2022-11-09T12:48:20.766Z,25.00
2022-11-09T12:50:51.326Z,25.00
2022-11-09T12:53:23.014Z,25.00
2022-11-09T12:56:14.251Z,25.00
2022-11-09T12:58:42.222Z,25.00
2022-11-09T13:01:33.085Z,25.00
2022-11-09T13:04:04.341Z,25.00
2022-11-09T13:06:33.488Z,25.00
2022-11-09T13:09:43.968Z,25.00
2022-11-09T13:12:18.801Z,25.00
2022-11-09T13:14:47.721Z,25.00
2022-11-09T13:17:22.090Z,25.00
2022-11-09T13:19:53.219Z,25.00
2022-11-09T13:22:25.430Z,25.00
2022-11-09T13:25:01.394Z,25.00
2022-11-09T13:27:49.932Z,25.00
2022-11-09T13:30:29.569Z,25.00
2022-11-09T13:33:39.849Z,25.00
2022-11-09T13:36:07.357Z,25.00
2022-11-09T13:38:35.969Z,25.00
2022-11-09T13:41:34.180Z,25.00
2022-11-09T13:44:32.727Z,25.00
2022-11-09T13:47:06.530Z,25.00
2022-11-09T13:49:49.672Z,25.00
2022-11-09T13:52:51.089Z,25.00
2022-11-09T13:55:45.161Z,25.00
2022-11-09T13:58:30.124Z,25.00
2022-11-09T14:01:01.114Z,25.00
2022-11-09T14:03:31.720Z,25.00
2022-11-09T14:06:02.621Z,25.00
2022-11-09T14:08:40.723Z,25.00
2022-11-09T14:11:08.674Z,25.00
2022-11-09T14:13:46.505Z,25.00
2022-11-09T14:16:34.969Z,25.00
2022-11-09T14:19:31.219Z,25.00
2022-11-09T14:22:04.728Z,25.00
2022-11-09T14:24:33.082Z,25.00
2022-11-09T14:27:08.940Z,25.00
2022-11-09T14:29:38.893Z,25.00
2022-11-09T14:32:30.218Z,25.00
2022-11-09T14:35:24.445Z,25.00
2022-11-09T14:37:55.997Z,25.00
2022-11-09T14:40:30.758Z,25.00
2022-11-09T14:43:27.039Z,25.00
2022-11-09T14:46:06.687Z,25.00
2022-11-09T14:48:44.875Z,25.00
2022-11-09T14:51:16.977Z,25.00
2022-11-09T14:53:46.825Z,25.00
2022-11-09T14:56:22.267Z,25.00
2022-11-09T14:58:52.997Z,25.00
2022-11-09T15:01:20.821Z,25.00
2022-11-09T15:04:24.184Z,25.00
2022-11-09T15:07:03.559Z,25.00
2022-11-09T15:09:49.562Z,25.00
2022-11-09T15:12:22.894Z,25.00
2022-11-09T15:15:03.967Z,25.00
2022-11-09T15:17:41.692Z,25.00
2022-11-09T15:20:14.751Z,25.00
2022-11-09T15:22:52.239Z,25.00
2022-11-09T15:25:38.107Z,25.00
2022-11-09T15:28:16.403Z,25.00
2022-11-09T15:30:58.727Z,25.00
2022-11-09T15:33:36.977Z,25.00
2022-11-09T15:36:45.035Z,25.00
2022-11-09T15:39:22.081Z,25.00
2022-11-09T15:41:54.103Z,25.00
2022-11-09T15:44:23.987Z,25.00
2022-11-09T15:46:53.936Z,25.00
2022-11-09T15:49:25.786Z,25.00
2022-11-09T15:51:56.396Z,25.00
2022-11-09T15:54:28.331Z,24.90
2022-11-09T15:56:58.337Z,25.00
2022-11-09T15:59:29.073Z,25.00
2022-11-09T16:01:57.500Z,25.00
2022-11-09T16:04:25.518Z,25.00
2022-11-09T16:06:55.726Z,25.00
2022-11-09T16:09:25.166Z,25.00
2022-11-09T16:11:54.202Z,25.00
2022-11-09T16:14:22.694Z,24.90
2022-11-09T16:16:50.353Z,25.00
2022-11-09T16:19:21.087Z,24.90
2022-11-09T16:21:53.793Z,24.90
2022-11-09T16:24:23.096Z,24.90
2022-11-09T16:26:52.590Z,25.00
2022-11-09T16:29:27.310Z,24.90
2022-11-09T16:32:01.584Z,24.90
2022-11-09T16:34:30.800Z,24.90
2022-11-09T16:37:03.537Z,24.90
2022-11-09T16:39:33.903Z,24.90
2022-11-09T16:42:12.210Z,24.90
2022-11-09T16:44:43.610Z,24.90
2022-11-09T16:47:19.012Z,24.90
2022-11-09T16:49:47.549Z,24.90
2022-11-09T16:52:17.049Z,24.90
2022-11-09T16:54:45.711Z,24.90
2022-11-09T16:57:14.245Z,24.90
2022-11-09T16:59:44.318Z,24.90
2022-11-09T17:02:12.632Z,24.90
2022-11-09T17:04:40.983Z,24.90
2022-11-09T17:07:10.880Z,24.90
2022-11-09T17:09:41.231Z,24.90
2022-11-09T17:12:12.788Z,24.90
2022-11-09T17:14:41.919Z,24.90
2022-11-09T17:17:11.265Z,24.90
2022-11-09T17:19:42.511Z,24.90
2022-11-09T17:22:08.669Z,24.90
2022-11-09T17:24:38.111Z,24.90
2022-11-09T17:27:15.363Z,24.90
2022-11-09T17:29:48.603Z,24.90
2022-11-09T17:32:27.377Z,24.90
2022-11-09T17:34:56.617Z,24.90
2022-11-09T17:37:26.985Z,24.90
2022-11-09T17:39:55.395Z,24.90
2022-11-09T17:42:23.151Z,24.80
2022-11-09T17:44:51.472Z,24.80
2022-11-09T17:47:21.676Z,24.90
2022-11-09T17:49:51.035Z,24.80
2022-11-09T17:52:18.692Z,24.80
2022-11-09T17:54:49.586Z,24.80
2022-11-09T17:57:18.749Z,24.80
2022-11-09T17:59:48.318Z,24.80
2022-11-09T18:02:19.870Z,24.80
2022-11-09T18:04:48.505Z,24.90
2022-11-09T18:07:19.652Z,24.90
2022-11-09T18:09:48.898Z,24.90
2022-11-09T18:12:18.881Z,24.90
2022-11-09T18:14:46.838Z,25.00
2022-11-09T18:17:16.622Z,25.00
2022-11-09T18:19:45.529Z,25.00
2022-11-09T18:22:13.837Z,25.00
2022-11-09T18:24:44.619Z,25.00
2022-11-09T18:27:13.697Z,25.10
2022-11-09T18:29:43.362Z,25.10
2022-11-09T18:32:11.410Z,25.00
2022-11-09T18:34:41.800Z,25.00
2022-11-09T18:37:08.404Z,25.10
2022-11-09T18:39:39.467Z,25.10
2022-11-09T18:42:10.097Z,25.10
2022-11-09T18:44:41.153Z,25.10
2022-11-09T18:47:11.004Z,25.10
2022-11-09T18:49:38.586Z,25.10
2022-11-09T18:52:08.648Z,25.10
2022-11-09T18:54:38.147Z,25.10
2022-11-09T18:57:05.465Z,25.10
2022-11-09T18:59:33.489Z,25.10
2022-11-09T19:02:01.832Z,25.10
2022-11-09T19:04:30.726Z,25.10
2022-11-09T19:06:59.852Z,25.10
2022-11-09T19:09:31.197Z,25.20
2022-11-09T19:12:01.549Z,25.10
2022-11-09T19:14:29.961Z,25.20
2022-11-09T19:17:01.409Z,25.20
2022-11-09T19:19:31.042Z,25.20
2022-11-09T19:21:58.354Z,25.20
2022-11-09T19:24:29.422Z,25.20
2022-11-09T19:26:58.801Z,25.20
2022-11-09T19:29:30.798Z,25.20
2022-11-09T19:31:59.461Z,25.20
2022-11-09T19:34:30.218Z,25.20
2022-11-09T19:36:59.556Z,25.20
2022-11-09T19:39:34.162Z,25.20
2022-11-09T19:42:02.687Z,25.20
2022-11-09T19:44:32.618Z,25.20
2022-11-09T19:47:01.348Z,25.20
2022-11-09T19:49:29.527Z,25.20
2022-11-09T19:51:58.493Z,25.20
2022-11-09T19:54:26.415Z,25.20
2022-11-09T19:56:54.396Z,25.20
2022-11-09T19:59:23.905Z,25.20
2022-11-09T20:01:52.598Z,25.30
2022-11-09T20:04:23.047Z,25.20
2022-11-09T20:06:52.471Z,25.30
2022-11-09T20:09:19.822Z,25.30
2022-11-09T20:12:06.165Z,25.30
2022-11-09T20:14:36.179Z,25.30
2022-11-09T20:17:08.899Z,25.30
2022-11-09T20:19:40.019Z,25.30
2022-11-09T20:22:11.990Z,25.30
2022-11-09T20:24:40.696Z,25.30
2022-11-09T20:27:09.030Z,25.30
2022-11-09T20:29:38.128Z,25.30
2022-11-09T20:32:12.024Z,25.30
2022-11-09T20:34:40.934Z,25.30
2022-11-09T20:37:08.940Z,25.30
2022-11-09T20:39:40.450Z,25.30
2022-11-09T20:42:09.486Z,25.30
2022-11-09T20:44:37.057Z,25.40
2022-11-09T20:47:05.026Z,25.40
2022-11-09T20:49:34.285Z,25.30
2022-11-09T20:52:01.019Z,25.40
2022-11-09T20:54:29.157Z,25.40
2022-11-09T20:56:58.953Z,25.40
2022-11-09T20:59:30.382Z,25.40
2022-11-09T21:01:57.999Z,25.40
2022-11-09T21:04:26.206Z,25.40
2022-11-09T21:06:54.362Z,25.40
2022-11-09T21:09:21.734Z,25.40
2022-11-09T21:12:08.309Z,25.40
2022-11-09T21:14:36.476Z,25.40
2022-11-09T21:17:03.468Z,25.40
2022-11-09T21:19:30.643Z,25.40
2022-11-09T21:21:59.136Z,25.40
2022-11-09T21:24:47.437Z,25.40
2022-11-09T21:27:33.539Z,25.40
2022-11-09T21:30:02.283Z,25.40
2022-11-09T21:32:32.365Z,25.40
2022-11-09T21:35:01.100Z,25.40
2022-11-09T21:37:28.127Z,25.40
2022-11-09T21:39:59.018Z,25.40
2022-11-09T21:42:27.357Z,25.40
2022-11-09T21:44:55.080Z,25.40
2022-11-09T21:47:23.778Z,25.40
2022-11-09T21:49:50.968Z,25.40
2022-11-09T21:52:18.962Z,25.40
2022-11-09T21:54:49.704Z,25.40
2022-11-09T21:57:17.055Z,25.40
2022-11-09T21:59:48.932Z,25.40
2022-11-09T22:02:20.587Z,25.40
2022-11-09T22:04:49.106Z,25.40
2022-11-09T22:07:16.037Z,25.40
2022-11-09T22:10:08.871Z,25.40
2022-11-09T22:12:52.264Z,25.50
2022-11-09T22:15:40.286Z,25.40
2022-11-09T22:18:28.446Z,25.40
2022-11-09T22:20:56.996Z,25.40
2022-11-09T22:23:24.140Z,25.40
2022-11-09T22:25:52.032Z,25.50
2022-11-09T22:28:20.915Z,25.40
2022-11-09T22:30:52.620Z,25.40
2022-11-09T22:33:27.065Z,25.40
2022-11-09T22:35:58.166Z,25.40
2022-11-09T22:38:27.415Z,25.50
2022-11-09T22:40:58.994Z,25.50
2022-11-09T22:43:27.540Z,25.50
2022-11-09T22:45:58.708Z,25.50
2022-11-09T22:48:29.135Z,25.50
2022-11-09T22:50:57.379Z,25.50
2022-11-09T22:53:28.116Z,25.50
2022-11-09T22:55:58.568Z,25.50
2022-11-09T22:58:30.913Z,25.50
2022-11-09T23:01:16.752Z,25.40
2022-11-09T23:03:46.348Z,25.50
2022-11-09T23:06:20.591Z,25.40
2022-11-09T23:08:51.842Z,25.50
2022-11-09T23:11:25.151Z,25.50
2022-11-09T23:13:54.629Z,25.50
2022-11-09T23:16:24.338Z,25.50
2022-11-09T23:18:56.626Z,25.50
2022-11-09T23:21:31.635Z,25.50
2022-11-09T23:24:03.084Z,25.50
2022-11-09T23:26:33.736Z,25.50
2022-11-09T23:29:02.011Z,25.60
2022-11-09T23:31:29.996Z,25.50
2022-11-09T23:34:00.066Z,25.50
2022-11-09T23:36:27.828Z,25.50
2022-11-09T23:38:56.550Z,25.50
2022-11-09T23:41:26.540Z,25.60
2022-11-09T23:43:57.381Z,25.50
2022-11-09T23:46:23.975Z,25.50
2022-11-09T23:48:53.085Z,25.50
2022-11-09T23:51:21.220Z,25.50
2022-11-09T23:53:48.147Z,25.50
2022-11-09T23:56:15.468Z,25.50
2022-11-09T23:58:45.870Z,25.50
